createdAt,value
2019-02-18T00:02:21.971Z,6.20
2019-02-18T00:04:52.186Z,6.03
2019-02-18T00:07:22.406Z,4.77
2019-02-18T00:09:52.926Z,6.23
2019-02-18T00:12:23.529Z,5.80
2019-02-18T00:14:54.845Z,5.93
2019-02-18T00:17:26.013Z,7.00
2019-02-18T00:19:56.816Z,5.13
2019-02-18T00:22:27.564Z,5.27
2019-02-18T00:24:58.068Z,5.90
2019-02-18T00:27:28.279Z,6.90
2019-02-18T00:29:58.521Z,5.97
2019-02-18T00:32:28.726Z,6.13
2019-02-18T00:34:58.894Z,4.40
2019-02-18T00:37:29.530Z,5.20
2019-02-18T00:39:59.985Z,4.50
2019-02-18T00:42:30.490Z,4.40
2019-02-18T00:45:00.986Z,5.13
2019-02-18T00:47:31.551Z,5.03
2019-02-18T00:50:01.837Z,5.10
2019-02-18T00:52:32.407Z,4.50
2019-02-18T00:55:03.344Z,5.10
2019-02-18T00:57:33.839Z,4.50
2019-02-18T01:00:04.809Z,4.97
2019-02-18T01:02:35.515Z,5.73
2019-02-18T01:05:06.338Z,4.73
2019-02-18T01:07:36.917Z,4.47
2019-02-18T01:10:08.498Z,4.30
2019-02-18T01:12:39.093Z,4.63
2019-02-18T01:15:10.676Z,4.10
2019-02-18T01:17:40.966Z,5.03
2019-02-18T01:20:11.647Z,5.70
2019-02-18T01:22:43.661Z,6.10
2019-02-18T01:25:13.909Z,4.85
2019-02-18T01:27:44.531Z,6.20
2019-02-18T01:30:15.696Z,6.17
2019-02-18T01:32:46.015Z,5.73
2019-02-18T01:35:16.626Z,5.37
2019-02-18T01:37:46.917Z,6.47
2019-02-18T01:40:17.468Z,6.07
2019-02-18T01:42:48.429Z,4.67
2019-02-18T01:45:18.697Z,5.80
2019-02-18T01:47:48.964Z,4.73
2019-02-18T01:50:19.500Z,6.80
2019-02-18T01:52:50.333Z,5.50
2019-02-18T01:55:20.524Z,6.63
2019-02-18T01:57:51.050Z,8.47
2019-02-18T02:00:21.234Z,5.70
2019-02-18T02:02:51.939Z,5.37
2019-02-18T02:05:22.560Z,5.83
2019-02-18T02:07:56.366Z,5.83
2019-02-18T02:10:24.846Z,6.23
2019-02-18T02:13:27.748Z,5.97
2019-02-18T02:15:58.471Z,5.97
2019-02-18T02:18:28.756Z,6.60
2019-02-18T02:20:59.650Z,6.43
2019-02-18T02:23:30.820Z,6.53
2019-02-18T02:26:01.391Z,6.23
2019-02-18T02:28:31.981Z,4.23
2019-02-18T02:31:02.626Z,5.90
2019-02-18T02:33:32.872Z,5.37
2019-02-18T02:36:03.164Z,6.07
2019-02-18T02:38:34.067Z,5.87
2019-02-18T02:41:04.599Z,6.40
2019-02-18T02:43:34.876Z,6.50
2019-02-18T02:46:05.655Z,5.03
2019-02-18T02:48:37.047Z,6.20
2019-02-18T02:51:07.659Z,6.63
2019-02-18T02:53:38.337Z,5.87
2019-02-18T02:56:09.211Z,4.87
2019-02-18T02:58:39.944Z,4.40
2019-02-18T03:01:10.231Z,5.67
2019-02-18T03:03:41.195Z,4.80
2019-02-18T03:06:11.442Z,4.73
2019-02-18T03:08:42.444Z,4.50
2019-02-18T03:11:13.564Z,4.83
2019-02-18T03:13:43.950Z,4.13
2019-02-18T03:19:36.510Z,4.90
2019-02-18T03:22:07.342Z,4.90
2019-02-18T03:24:37.890Z,6.83
2019-02-18T03:27:08.126Z,4.90
2019-02-18T03:30:07.610Z,4.57
2019-02-18T03:32:45.919Z,4.90
2019-02-18T03:35:17.107Z,5.00
2019-02-18T03:37:47.377Z,5.30
2019-02-18T03:40:17.919Z,5.77
2019-02-18T03:42:49.022Z,4.60
2019-02-18T03:45:19.579Z,4.67
2019-02-18T03:47:50.117Z,5.17
2019-02-18T03:50:20.980Z,4.87
2019-02-18T03:52:51.447Z,5.10
2019-02-18T03:55:22.119Z,5.07
2019-02-18T03:57:52.355Z,5.23
2019-02-18T04:00:22.673Z,4.97
2019-02-18T04:02:53.020Z,4.93
2019-02-18T04:05:23.305Z,4.83
2019-02-18T04:07:54.253Z,4.87
2019-02-18T04:10:24.885Z,4.97
2019-02-18T04:12:55.342Z,4.87
2019-02-18T04:15:25.973Z,5.90
2019-02-18T04:17:56.539Z,5.23
2019-02-18T04:20:27.413Z,4.33
2019-02-18T04:22:58.140Z,5.00
2019-02-18T04:25:28.509Z,5.37
2019-02-18T04:27:59.405Z,6.70
2019-02-18T04:30:29.634Z,5.13
2019-02-18T04:33:00.368Z,5.60
2019-02-18T04:35:30.688Z,4.87
2019-02-18T04:38:01.243Z,4.50
2019-02-18T04:40:31.839Z,5.20
2019-02-18T04:43:02.385Z,5.60
2019-02-18T04:45:33.104Z,6.47
2019-02-18T04:48:04.160Z,6.53
2019-02-18T04:50:34.689Z,6.27
2019-02-18T04:53:05.217Z,6.13
2019-02-18T04:55:36.994Z,7.73
2019-02-18T04:58:07.172Z,6.70
2019-02-18T05:00:37.729Z,6.03
2019-02-18T05:03:08.009Z,6.07
2019-02-18T05:05:38.502Z,5.87
2019-02-18T05:08:09.113Z,5.57
2019-02-18T05:10:40.226Z,5.07
2019-02-18T05:13:11.061Z,4.57
2019-02-18T05:15:42.286Z,5.00
2019-02-18T05:18:13.027Z,6.67
2019-02-18T05:20:43.604Z,7.73
2019-02-18T05:23:14.142Z,4.77
2019-02-18T05:25:45.795Z,6.53
2019-02-18T05:28:16.729Z,5.00
2019-02-18T05:30:47.301Z,5.10
2019-02-18T05:33:18.207Z,7.93
2019-02-18T05:35:48.935Z,6.17
2019-02-18T05:38:19.229Z,7.47
2019-02-18T05:40:50.197Z,7.53
2019-02-18T05:43:20.392Z,5.07
2019-02-18T05:45:51.531Z,7.10
2019-02-18T05:48:22.076Z,5.77
2019-02-18T05:50:53.509Z,6.90
2019-02-18T05:53:24.696Z,7.63
2019-02-18T05:55:55.622Z,6.83
2019-02-18T05:58:26.533Z,6.53
2019-02-18T06:00:57.234Z,6.30
2019-02-18T06:03:27.831Z,7.33
2019-02-18T06:05:59.160Z,6.30
2019-02-18T06:08:29.708Z,6.20
2019-02-18T06:10:59.984Z,9.03
2019-02-18T06:13:30.328Z,7.17
2019-02-18T06:16:02.632Z,7.80
2019-02-18T06:18:32.815Z,6.33
2019-02-18T06:21:03.506Z,6.97
2019-02-18T06:23:34.106Z,7.53
2019-02-18T06:26:04.658Z,6.23
2019-02-18T06:28:35.198Z,5.90
2019-02-18T06:31:05.524Z,5.63
2019-02-18T06:33:36.103Z,6.27
2019-02-18T06:36:06.393Z,6.03
2019-02-18T06:38:38.640Z,5.17
2019-02-18T06:41:09.488Z,5.72
2019-02-18T06:43:39.747Z,7.20
2019-02-18T06:46:27.920Z,5.97
2019-02-18T06:49:15.685Z,6.70
2019-02-18T06:51:46.969Z,6.83
2019-02-18T06:54:17.635Z,6.67
2019-02-18T06:57:08.547Z,6.60
2019-02-18T07:00:04.332Z,7.90
2019-02-18T07:02:52.988Z,6.47
2019-02-18T07:05:42.169Z,5.53
2019-02-18T07:08:28.986Z,6.97
2019-02-18T07:11:24.516Z,5.40
2019-02-18T07:13:55.049Z,6.83
2019-02-18T07:16:25.579Z,6.50
2019-02-18T07:18:56.461Z,8.00
2019-02-18T07:21:27.293Z,8.80
2019-02-18T07:23:57.879Z,9.73
2019-02-18T07:26:28.403Z,7.57
2019-02-18T07:28:58.945Z,10.70
2019-02-18T07:31:29.157Z,11.97
2019-02-18T07:34:00.005Z,10.13
2019-02-18T07:36:30.632Z,8.33
2019-02-18T07:39:01.146Z,7.93
2019-02-18T07:41:31.406Z,8.20
2019-02-18T07:44:02.003Z,8.57
2019-02-18T07:46:32.740Z,8.67
2019-02-18T07:49:03.386Z,9.75
2019-02-18T07:51:34.682Z,7.03
2019-02-18T07:54:04.967Z,8.40
2019-02-18T07:56:36.303Z,7.17
2019-02-18T07:59:07.046Z,9.00
2019-02-18T08:01:40.605Z,8.43
2019-02-18T08:04:15.153Z,7.93
2019-02-18T08:06:48.475Z,7.83
2019-02-18T08:09:20.908Z,7.90
2019-02-18T08:11:54.140Z,7.77
2019-02-18T08:14:27.992Z,7.23
2019-02-18T08:17:01.997Z,9.30
2019-02-18T08:19:36.457Z,7.03
2019-02-18T08:22:09.811Z,6.10
2019-02-18T08:24:40.700Z,7.70
2019-02-18T08:27:14.374Z,9.00
2019-02-18T08:29:47.894Z,7.27
2019-02-18T08:32:20.202Z,9.00
2019-02-18T08:34:53.666Z,7.67
2019-02-18T08:37:25.020Z,7.13
2019-02-18T08:39:58.262Z,6.67
2019-02-18T08:42:30.681Z,7.17
2019-02-18T08:45:05.626Z,7.00
2019-02-18T08:47:40.735Z,8.53
2019-02-18T08:50:15.129Z,7.33
2019-02-18T08:52:48.898Z,8.67
2019-02-18T08:55:23.196Z,6.63
2019-02-18T08:57:54.769Z,8.70
2019-02-18T09:00:30.450Z,10.47
2019-02-18T09:03:03.727Z,6.17
2019-02-18T09:05:37.477Z,5.70
2019-02-18T09:08:11.519Z,7.27
2019-02-18T09:10:42.573Z,7.03
2019-02-18T09:13:13.279Z,7.50
2019-02-18T09:15:52.970Z,6.70
2019-02-18T09:18:20.816Z,7.33
2019-02-18T09:20:51.443Z,6.70
2019-02-18T09:23:40.910Z,7.40
2019-02-18T09:26:12.771Z,8.70
2019-02-18T09:28:43.537Z,6.10
2019-02-18T09:31:14.193Z,8.13
2019-02-18T09:33:44.773Z,7.03
2019-02-18T09:36:15.312Z,7.10
2019-02-18T09:38:45.994Z,7.47
2019-02-18T09:41:17.088Z,6.43
2019-02-18T09:43:48.233Z,6.10
2019-02-18T09:46:18.543Z,7.57
2019-02-18T09:48:49.317Z,9.87
2019-02-18T09:51:20.310Z,6.70
2019-02-18T09:53:51.645Z,7.83
2019-02-18T09:56:22.246Z,6.37
2019-02-18T09:58:52.838Z,8.27
2019-02-18T10:01:23.164Z,6.00
2019-02-18T10:03:53.885Z,9.20
2019-02-18T10:06:24.438Z,6.90
2019-02-18T10:08:55.316Z,6.73
2019-02-18T10:11:25.872Z,9.07
2019-02-18T10:13:56.925Z,8.20
2019-02-18T10:16:27.460Z,7.17
2019-02-18T10:18:58.502Z,6.87
2019-02-18T10:21:29.435Z,8.08
2019-02-18T10:24:00.727Z,6.32
2019-02-18T10:26:31.621Z,5.80
2019-02-18T10:29:02.150Z,6.67
2019-02-18T10:31:32.373Z,6.00
2019-02-18T10:34:02.903Z,7.92
2019-02-18T10:36:33.435Z,4.50
2019-02-18T10:39:05.534Z,6.78
2019-02-18T10:41:36.550Z,5.58
2019-02-18T10:44:07.267Z,6.00
2019-02-18T10:46:40.523Z,5.90
2019-02-18T10:49:19.299Z,3.70
2019-02-18T10:51:41.922Z,5.00
2019-02-18T10:54:13.078Z,6.03
2019-02-18T10:56:43.609Z,7.80
2019-02-18T10:59:14.144Z,4.55
2019-02-18T11:01:44.668Z,5.75
2019-02-18T11:04:15.806Z,5.33
2019-02-18T11:06:46.483Z,7.78
2019-02-18T11:09:17.069Z,5.78
2019-02-18T11:11:47.629Z,7.37
2019-02-18T11:14:18.140Z,5.47
2019-02-18T11:16:48.938Z,5.87
2019-02-18T11:19:19.529Z,7.33
2019-02-18T11:21:50.544Z,7.60
2019-02-18T11:24:21.487Z,6.47
2019-02-18T11:26:52.371Z,5.20
2019-02-18T11:29:22.606Z,5.50
2019-02-18T11:31:52.854Z,7.70
2019-02-18T11:34:23.803Z,6.35
2019-02-18T11:36:54.374Z,6.83
2019-02-18T11:39:24.587Z,7.87
2019-02-18T11:41:55.864Z,9.23
2019-02-18T11:45:19.340Z,7.37
2019-02-18T11:47:40.158Z,6.47
2019-02-18T11:50:11.446Z,7.30
2019-02-18T11:52:42.056Z,7.55
2019-02-18T11:55:12.876Z,6.43
2019-02-18T11:57:43.786Z,5.70
2019-02-18T12:00:14.124Z,8.63
2019-02-18T12:02:44.751Z,5.92
2019-02-18T12:05:15.320Z,6.37
2019-02-18T12:07:45.838Z,6.65
2019-02-18T12:10:16.488Z,7.42
2019-02-18T12:12:47.055Z,6.33
2019-02-18T12:15:18.396Z,6.15
2019-02-18T12:17:49.054Z,6.67
2019-02-18T12:20:19.622Z,8.35
2019-02-18T12:22:50.168Z,5.65
2019-02-18T12:25:20.848Z,6.20
2019-02-18T12:27:51.434Z,6.45
2019-02-18T12:30:21.956Z,5.03
2019-02-18T12:32:52.577Z,6.70
2019-02-18T12:35:30.583Z,8.68
2019-02-18T12:37:55.983Z,5.03
2019-02-18T12:40:26.238Z,5.85
2019-02-18T12:42:56.534Z,6.08
2019-02-18T12:45:27.173Z,5.92
2019-02-18T12:47:57.387Z,4.58
2019-02-18T12:50:28.063Z,5.50
2019-02-18T12:52:58.929Z,6.33
2019-02-18T12:55:29.998Z,5.55
2019-02-18T12:58:00.964Z,5.92
2019-02-18T13:00:31.488Z,5.12
2019-02-18T13:03:02.121Z,5.70
2019-02-18T13:05:33.065Z,6.20
2019-02-18T13:08:03.888Z,7.25
2019-02-18T13:10:34.855Z,7.78
2019-02-18T13:13:05.548Z,6.17
2019-02-18T13:15:35.727Z,7.25
2019-02-18T13:18:05.975Z,7.63
2019-02-18T13:20:36.844Z,6.60
2019-02-18T13:23:07.418Z,6.47
2019-02-18T13:25:37.998Z,5.67
2019-02-18T13:28:08.884Z,6.30
2019-02-18T13:30:39.018Z,6.80
2019-02-18T13:33:09.234Z,8.93
2019-02-18T13:35:39.482Z,8.05
2019-02-18T13:38:11.009Z,7.30
2019-02-18T13:40:41.890Z,6.30
2019-02-18T13:43:12.796Z,7.95
2019-02-18T13:45:43.018Z,5.78
2019-02-18T13:48:13.584Z,7.35
2019-02-18T13:50:44.426Z,6.78
2019-02-18T13:53:15.063Z,6.42
2019-02-18T13:55:45.340Z,5.22
2019-02-18T13:58:15.566Z,7.22
2019-02-18T14:00:45.793Z,6.08
2019-02-18T14:03:16.315Z,6.20
2019-02-18T14:05:46.890Z,6.17
2019-02-18T14:08:17.499Z,8.25
2019-02-18T14:10:48.298Z,7.08
2019-02-18T14:13:18.880Z,7.22
2019-02-18T14:15:49.378Z,6.72
2019-02-18T14:18:19.864Z,7.15
2019-02-18T14:20:51.022Z,7.22
2019-02-18T14:23:21.287Z,5.25
2019-02-18T14:25:51.938Z,4.27
2019-02-18T14:28:22.226Z,5.85
2019-02-18T14:30:52.451Z,5.12
2019-02-18T14:33:23.139Z,3.50
2019-02-18T14:35:53.697Z,3.07
2019-02-18T14:38:24.581Z,3.27
2019-02-18T14:40:56.009Z,3.52
2019-02-18T14:43:26.461Z,3.92
2019-02-18T14:45:57.304Z,3.77
2019-02-18T14:48:28.407Z,3.50
2019-02-18T14:50:58.976Z,3.40
2019-02-18T14:53:29.166Z,3.27
2019-02-18T14:56:00.036Z,3.73
2019-02-18T14:58:31.691Z,3.95
2019-02-18T15:01:02.743Z,4.45
2019-02-18T15:03:33.685Z,3.58
2019-02-18T15:06:03.981Z,4.53
2019-02-18T15:08:34.631Z,3.50
2019-02-18T15:11:05.528Z,6.58
2019-02-18T15:13:35.705Z,5.40
2019-02-18T15:16:06.421Z,3.08
2019-02-18T15:18:37.358Z,3.00
2019-02-18T15:21:08.195Z,5.87
2019-02-18T15:23:38.942Z,5.12
2019-02-18T15:26:09.663Z,3.35
2019-02-18T15:28:40.191Z,3.50
2019-02-18T15:31:10.484Z,2.43
2019-02-18T15:33:40.949Z,2.80
2019-02-18T15:36:11.156Z,2.12
2019-02-18T15:38:42.421Z,3.33
2019-02-18T15:41:13.144Z,2.87
2019-02-18T15:43:43.794Z,2.53
2019-02-18T15:46:14.096Z,2.77
2019-02-18T15:48:44.747Z,4.20
2019-02-18T15:51:15.469Z,4.12
2019-02-18T15:53:46.527Z,3.90
2019-02-18T15:56:17.246Z,4.12
2019-02-18T15:58:47.501Z,3.12
2019-02-18T16:01:18.104Z,3.95
2019-02-18T16:03:49.062Z,3.72
2019-02-18T16:06:19.775Z,3.92
2019-02-18T16:08:50.121Z,3.35
2019-02-18T16:11:21.433Z,2.83
2019-02-18T16:13:51.695Z,3.15
2019-02-18T16:16:22.303Z,3.37
2019-02-18T16:18:53.549Z,2.47
2019-02-18T16:21:24.083Z,2.17
2019-02-18T16:23:55.068Z,3.87
2019-02-18T16:26:25.319Z,2.25
2019-02-18T16:28:56.014Z,2.40
2019-02-18T16:31:26.926Z,2.20
2019-02-18T16:33:57.158Z,2.27
2019-02-18T16:36:28.071Z,3.65
2019-02-18T16:38:59.389Z,2.47
2019-02-18T16:41:29.975Z,3.77
2019-02-18T16:44:00.862Z,4.22
2019-02-18T16:46:32.139Z,5.05
2019-02-18T16:49:03.387Z,5.67
2019-02-18T16:51:34.840Z,4.10
2019-02-18T16:54:05.091Z,4.40
2019-02-18T16:56:35.366Z,3.37
2019-02-18T16:59:05.924Z,4.07
2019-02-18T17:01:36.855Z,3.27
2019-02-18T17:04:07.790Z,2.60
2019-02-18T17:06:38.631Z,3.00
2019-02-18T17:09:13.281Z,3.33
2019-02-18T17:11:43.663Z,5.53
2019-02-18T17:14:14.210Z,5.77
2019-02-18T17:16:44.735Z,3.07
2019-02-18T17:19:15.341Z,3.67
2019-02-18T17:21:46.216Z,3.57
2019-02-18T17:24:17.005Z,3.20
2019-02-18T17:26:47.251Z,3.87
2019-02-18T17:29:17.997Z,3.83
2019-02-18T17:31:48.889Z,4.37
2019-02-18T17:34:19.437Z,4.23
2019-02-18T17:36:50.003Z,5.77
2019-02-18T17:39:20.942Z,5.57
2019-02-18T17:41:51.463Z,5.30
2019-02-18T17:44:21.743Z,5.63
2019-02-18T17:46:52.032Z,6.53
2019-02-18T17:49:23.057Z,6.70
2019-02-18T17:51:54.000Z,7.73
2019-02-18T17:54:25.049Z,7.33
2019-02-18T17:56:55.675Z,5.83
2019-02-18T17:59:27.132Z,6.63
2019-02-18T18:01:58.055Z,6.20
2019-02-18T18:04:28.695Z,5.90
2019-02-18T18:06:58.914Z,6.37
2019-02-18T18:09:29.199Z,8.27
2019-02-18T18:11:59.717Z,8.33
2019-02-18T18:14:30.270Z,7.17
2019-02-18T18:17:00.825Z,6.27
2019-02-18T18:19:31.310Z,7.30
2019-02-18T18:22:01.943Z,5.93
2019-02-18T18:24:32.779Z,5.97
2019-02-18T18:27:03.128Z,7.37
2019-02-18T18:29:33.751Z,7.03
2019-02-18T18:32:04.239Z,9.33
2019-02-18T18:34:34.833Z,10.43
2019-02-18T18:37:05.077Z,10.83
2019-02-18T18:39:36.215Z,9.40
2019-02-18T18:42:07.673Z,10.32
2019-02-18T18:44:39.064Z,10.00
2019-02-18T18:47:09.954Z,9.53
2019-02-18T18:49:40.884Z,8.17
2019-02-18T18:52:11.155Z,11.97
2019-02-18T18:54:41.823Z,8.77
2019-02-18T18:57:12.545Z,6.50
2019-02-18T18:59:43.222Z,6.77
2019-02-18T19:02:13.841Z,8.83
2019-02-18T19:04:45.012Z,9.17
2019-02-18T19:07:16.319Z,8.50
2019-02-18T19:09:47.117Z,8.60
2019-02-18T19:12:17.964Z,9.20
2019-02-18T19:14:48.738Z,6.50
2019-02-18T19:17:19.202Z,8.33
2019-02-18T19:19:57.571Z,9.40
2019-02-18T19:22:22.241Z,10.47
2019-02-18T19:24:52.981Z,9.75
2019-02-18T19:27:23.382Z,9.53
2019-02-18T19:29:54.267Z,10.90
2019-02-18T19:32:24.697Z,9.87
2019-02-18T19:34:55.409Z,10.67
2019-02-18T19:37:26.386Z,9.37
2019-02-18T19:39:58.174Z,9.33
2019-02-18T19:42:28.565Z,10.50
2019-02-18T19:44:59.195Z,8.40
2019-02-18T19:47:30.201Z,7.83
2019-02-18T19:50:01.092Z,9.47
2019-02-18T19:52:31.731Z,7.90
2019-02-18T19:55:02.416Z,8.97
2019-02-18T19:57:32.806Z,9.68
2019-02-18T20:00:03.457Z,9.47
2019-02-18T20:02:35.503Z,9.40
2019-02-18T20:05:05.888Z,10.07
2019-02-18T20:07:36.625Z,11.67
2019-02-18T20:10:07.638Z,10.87
2019-02-18T20:12:38.197Z,11.70
2019-02-18T20:15:09.558Z,10.23
2019-02-18T20:17:39.856Z,9.57
2019-02-18T20:20:10.907Z,10.93
2019-02-18T20:22:41.984Z,8.97
2019-02-18T20:25:12.810Z,12.23
2019-02-18T20:27:43.547Z,11.17
2019-02-18T20:30:13.969Z,10.03
2019-02-18T20:32:44.594Z,10.17
2019-02-18T20:35:14.929Z,10.47
2019-02-18T20:37:45.497Z,9.83
2019-02-18T20:40:15.986Z,9.60
2019-02-18T20:42:47.131Z,10.97
2019-02-18T20:45:18.112Z,9.57
2019-02-18T20:47:48.436Z,10.50
2019-02-18T20:50:19.420Z,11.57
2019-02-18T20:52:50.171Z,10.17
2019-02-18T20:55:20.717Z,10.73
2019-02-18T20:57:51.409Z,12.13
2019-02-18T21:00:22.011Z,12.80
2019-02-18T21:02:52.339Z,19.07
2019-02-18T21:05:22.933Z,20.37
2019-02-18T21:07:54.097Z,28.37
2019-02-18T21:10:24.857Z,24.73
2019-02-18T21:12:55.249Z,18.27
2019-02-18T21:15:25.573Z,16.83
2019-02-18T21:17:56.277Z,14.00
2019-02-18T21:20:27.016Z,16.33
2019-02-18T21:22:57.952Z,14.43
2019-02-18T21:25:28.571Z,12.57
2019-02-18T21:28:00.545Z,11.08
2019-02-18T21:30:31.649Z,12.97
2019-02-18T21:33:02.251Z,11.73
2019-02-18T21:35:34.186Z,10.60
2019-02-18T21:38:05.542Z,12.60
2019-02-18T21:40:36.175Z,13.87
2019-02-18T21:43:06.466Z,11.67
2019-02-18T21:45:38.900Z,11.90
2019-02-18T21:48:10.972Z,11.33
2019-02-18T21:50:42.484Z,13.17
2019-02-18T21:53:13.172Z,12.87
2019-02-18T21:55:46.418Z,15.70
2019-02-18T21:58:17.069Z,13.07
2019-02-18T22:00:47.636Z,12.77
2019-02-18T22:03:20.512Z,11.27
2019-02-18T22:05:51.938Z,10.83
2019-02-18T22:08:22.511Z,11.53
2019-02-18T22:10:53.515Z,10.10
2019-02-18T22:13:24.982Z,8.03
2019-02-18T22:15:56.609Z,9.60
2019-02-18T22:18:27.216Z,10.53
2019-02-18T22:20:58.035Z,12.27
2019-02-18T22:23:34.103Z,10.80
2019-02-18T22:26:04.646Z,9.90
2019-02-18T22:28:35.649Z,9.33
2019-02-18T22:31:06.214Z,11.77
2019-02-18T22:33:36.965Z,9.10
2019-02-18T22:36:07.625Z,12.07
2019-02-18T22:38:39.351Z,11.43
2019-02-18T22:41:10.374Z,10.13
2019-02-18T22:43:40.998Z,9.30
2019-02-18T22:46:11.815Z,11.33
2019-02-18T22:48:42.124Z,9.80
2019-02-18T22:51:12.738Z,9.30
2019-02-18T22:53:44.151Z,9.00
2019-02-18T22:56:15.029Z,9.70
2019-02-18T22:58:45.517Z,12.40
2019-02-18T23:01:16.448Z,10.47
2019-02-18T23:03:47.652Z,13.23
2019-02-18T23:06:18.006Z,10.47
2019-02-18T23:08:48.966Z,9.03
2019-02-18T23:11:19.266Z,9.10
2019-02-18T23:13:49.819Z,11.33
2019-02-18T23:16:20.167Z,9.47
2019-02-18T23:18:51.546Z,9.57
2019-02-18T23:21:22.526Z,7.73
2019-02-18T23:23:53.127Z,7.33
2019-02-18T23:26:23.555Z,8.27
2019-02-18T23:28:53.740Z,8.63
2019-02-18T23:31:24.101Z,10.08
2019-02-18T23:33:55.179Z,10.70
2019-02-18T23:36:25.851Z,10.13
2019-02-18T23:38:56.952Z,9.43
2019-02-18T23:41:27.874Z,9.73
2019-02-18T23:43:58.053Z,9.90
2019-02-18T23:46:28.548Z,8.33
2019-02-18T23:48:59.231Z,7.63
2019-02-18T23:51:29.741Z,7.50
2019-02-18T23:54:00.745Z,8.77
2019-02-18T23:56:31.943Z,7.73
2019-02-18T23:59:02.831Z,7.07
